Latest Weather Observations for Amberley

IDQ60801

Issued at 5:02 am EST Saturday 29 August 2015 (issued every 30 minutes, with the page automatically refreshed every 10 minutes)

About weather observations | Map of weather stations | Latest weather observations for QLD | Other Formats
Station Details ID: 040004 Name: AMBERLEY AMO Lat: -27.63 Lon: 152.71 Height: 24.2 m
Data from the previous 72 hours. | See also: Recent months at Amberley
Date/Time
EST
Temp
°C
App
Temp
°C
Dew
Point
Rel
Hum
%
Delta-T
°C
Wind Press
QNH
hPa
Press
MSL
hPa
Rain
since 9 am
mm
Dir
 
Spd
km/h
Gust
km/h
Spd
kts
Gust
kts
29/05:00am 6.8 5.8 5.7 93 0.5 CALM 0 0 0 0 1022.0 - 0.0
29/04:30am 6.5 5.5 5.8 95 0.3 CALM 0 0 0 0 1021.9 - 0.0
29/04:00am 6.8 5.8 5.4 91 0.6 CALM 0 0 0 0 1022.0 - 0.0
29/03:30am 6.0 4.9 5.3 95 0.3 CALM 0 0 0 0 1022.1 - 0.0
29/03:00am 6.3 5.2 5.2 93 0.5 CALM 0 0 0 0 1022.3 1022.4 0.0
29/02:30am 6.4 5.3 5.3 93 0.5 CALM 0 0 0 0 1022.5 - 0.0
29/02:00am 6.9 5.8 5.3 89 0.7 CALM 0 0 0 0 1022.4 - 0.0
29/01:30am 6.9 4.5 5.3 89 0.7 NW 7 9 4 5 1022.4 - 0.0
29/01:00am 6.2 4.0 5.3 94 0.4 NW 6 13 3 7 1022.5 - 0.0
29/12:30am 6.8 5.8 5.7 93 0.5 CALM 0 0 0 0 1022.6 - 0.0
29/12:00am 8.0 7.1 6.2 88 0.8 CALM 0 0 0 0 1022.6 1022.7 0.0
 
Date/Time
EST
Temp
°C
App
Temp
°C
Dew
Point
Rel
Hum
%
Delta-T
°C
Wind Press
QNH
hPa
Press
MSL
hPa
Rain
since 9 am
mm
Dir
 
Spd
km/h
Gust
km/h
Spd
kts
Gust
kts
28/11:30pm 8.5 7.6 6.1 85 1.1 CALM 0 0 0 0 1022.4 - 0.0
28/11:00pm 9.3 8.4 6.0 80 1.5 CALM 0 0 0 0 1022.4 - 0.0
28/10:30pm 9.0 6.7 5.7 80 1.5 NNW 7 9 4 5 1022.4 - 0.0
28/10:00pm 10.1 9.0 5.2 71 2.2 CALM 0 0 0 0 1022.5 - 0.0
28/09:30pm 11.0 10.1 6.0 71 2.3 CALM 0 0 0 0 1022.6 - 0.0
28/09:00pm 10.8 8.3 4.8 66 2.7 NNW 7 11 4 6 1022.4 1022.5 0.0
28/08:30pm 13.7 12.1 4.3 53 4.3 SSW 2 7 1 4 1022.4 - 0.0
28/08:00pm 14.5 12.9 4.5 51 4.6 E 2 9 1 5 1022.1 - 0.0
28/07:30pm 14.6 11.5 3.8 48 4.9 NE 9 13 5 7 1021.5 - 0.0
28/07:00pm 16.9 12.7 3.7 41 6.1 W 15 19 8 10 1020.9 - 0.0
28/06:30pm 17.3 13.1 3.8 40 6.3 W 15 20 8 11 1020.6 - 0.0
28/06:00pm 19.2 15.5 4.3 37 7.1 W 13 17 7 9 1019.8 1019.9 0.0
28/05:30pm 20.1 16.4 4.3 35 7.6 W 13 17 7 9 1019.5 - 0.0
28/05:00pm 22.1 16.4 2.9 28 9.1 W 22 30 12 16 1019.1 - 0.0
28/04:30pm 23.3 18.5 2.8 26 9.8 W 17 26 9 14 1018.8 - 0.0
28/04:00pm 24.1 18.4 2.6 24 10.3 WNW 22 28 12 15 1018.6 - 0.0
28/03:30pm 24.1 19.0 3.3 25 10.1 WNW 19 28 10 15 1018.4 - 0.0
28/03:00pm 24.7 18.3 3.1 24 10.5 W 26 30 14 16 1018.3 1018.3 0.0
28/02:30pm 25.4 20.9 4.4 25 10.5 W 17 28 9 15 1018.3 - 0.0
28/02:00pm 24.2 19.6 3.8 26 10.0 WNW 17 24 9 13 1018.5 - 0.0
28/01:30pm 23.3 20.7 7.9 37 8.1 NW 11 19 6 10 1019.0 - 0.0
28/01:00pm 23.0 21.0 8.7 40 7.6 NW 9 24 5 13 1019.5 - 0.0
28/12:30pm 22.3 20.6 8.5 41 7.3 NNW 7 15 4 8 1020.1 - 0.0
28/12:00pm 22.0 20.4 8.8 43 7.0 E 7 17 4 9 1020.6 1020.7 0.0
28/11:30am 21.3 20.1 9.7 47 6.2 WSW 6 11 3 6 1021.2 - 0.0
28/11:00am 20.9 21.2 12.3 58 4.8 WNW 2 11 1 6 1021.9 - 0.0
28/10:30am 20.1 19.5 12.4 61 4.3 NW 7 13 4 7 1022.3 - 0.0
28/10:00am 18.7 18.9 14.2 75 2.6 WNW 6 11 3 6 1022.6 - 0.0
28/09:30am 16.9 17.2 14.6 86 1.3 S 6 9 3 5 1022.4 - 0.0
28/09:00am 16.0 17.3 14.2 89 1.0 CALM 0 0 0 0 1022.6 1022.7 8.6
28/08:58am 16.0 17.3 14.2 89 1.0 CALM 0 0 0 0 1022.6 - 8.6
28/08:30am 15.6 15.8 14.2 91 0.8 SW 6 7 3 4 1022.7 - 8.6
28/08:00am 15.0 16.3 14.1 94 0.5 CALM 0 7 0 4 1022.3 - 8.6
28/07:30am 14.6 15.8 13.7 94 0.5 CALM 0 0 0 0 1022.1 - 8.6
28/07:00am 13.9 14.2 13.4 97 0.3 N 4 7 2 4 1021.8 - 8.4
28/06:30am 13.9 14.9 13.2 96 0.4 CALM 0 0 0 0 1021.5 - 8.4
28/06:00am 13.8 14.8 13.3 97 0.3 CALM 0 4 0 2 1021.3 1021.4 8.4
28/05:46am 13.8 13.7 13.3 97 0.3 WSW 6 7 3 4 1021.3 - 8.4
28/05:33am 13.8 14.1 13.3 97 0.3 WNW 4 7 2 4 1021.0 - 8.4
28/05:30am 13.8 13.7 13.3 97 0.3 WNW 6 9 3 5 1020.9 - 8.4
28/05:00am 13.7 13.9 13.2 97 0.3 NNW 4 7 2 4 1020.9 - 8.4
28/04:30am 13.5 13.2 12.8 95 0.4 NNW 6 9 3 5 1020.6 - 8.4
28/04:25am 13.6 13.4 12.9 95 0.4 WNW 6 9 3 5 1020.4 - 8.4
28/04:09am 13.7 14.3 13.0 96 0.4 SSW 2 7 1 4 1020.3 - 8.4
28/04:00am 13.7 14.6 12.8 94 0.5 CALM 0 0 0 0 1020.5 - 8.4
28/03:30am 13.7 13.4 12.8 94 0.5 SSW 6 9 3 5 1020.1 - 8.2
28/03:00am 13.8 13.4 13.1 96 0.4 S 7 9 4 5 1020.3 1020.4 8.2
28/02:54am 13.8 13.0 12.9 94 0.5 SSW 9 11 5 6 1020.2 - 8.2
28/02:30am 13.8 13.4 13.1 96 0.4 SSW 7 11 4 6 1020.6 - 8.2
28/02:00am 13.7 14.6 13.0 96 0.4 CALM 0 0 0 0 1020.6 - 8.2
28/01:30am 13.8 14.8 13.1 96 0.4 CALM 0 0 0 0 1021.1 - 8.2
28/01:13am 13.8 13.4 13.1 96 0.4 SSW 7 13 4 7 1021.3 - 8.2
28/01:07am 13.7 14.3 13.0 96 0.4 S 2 9 1 5 1021.2 - 8.0
28/01:00am 13.6 14.6 13.1 97 0.3 CALM 0 0 0 0 1020.8 - 7.8
28/12:30am 13.9 13.6 12.8 93 0.6 SSW 6 9 3 5 1021.2 - 7.8
28/12:06am 13.8 13.5 13.3 97 0.3 SSW 7 9 4 5 1021.7 - 7.8
28/12:00am 13.8 13.7 13.3 97 0.3 SSW 6 9 3 5 1021.5 1021.6 7.8
 
Date/Time
EST
Temp
°C
App
Temp
°C
Dew
Point
Rel
Hum
%
Delta-T
°C
Wind Press
QNH
hPa
Press
MSL
hPa
Rain
since 9 am
mm
Dir
 
Spd
km/h
Gust
km/h
Spd
kts
Gust
kts
27/11:46pm 13.7 13.6 13.2 97 0.3 SSW 6 7 3 4 1021.4 - 7.8
27/11:40pm 13.7 13.6 13.2 97 0.3 SSW 6 9 3 5 1021.3 - 7.8
27/11:30pm 13.5 13.7 13.0 97 0.3 S 4 9 2 5 1021.1 - 7.8
27/11:14pm 13.5 14.5 13.1 97 0.2 CALM 0 - 0 - 1021.2 - 7.8
27/11:00pm 13.6 14.6 13.1 97 0.3 CALM 0 0 0 0 1021.4 - 7.8
27/10:44pm 13.6 14.6 13.1 97 0.3 CALM 0 0 0 0 1021.5 - 7.8
27/10:30pm 13.7 14.7 13.2 97 0.3 CALM 0 0 0 0 1021.6 - 7.8
27/10:00pm 13.6 14.6 13.1 97 0.3 CALM 0 0 0 0 1021.9 - 7.8
27/09:30pm 13.7 13.6 13.2 97 0.3 S 6 7 3 4 1021.7 - 7.8
27/09:00pm 14.0 13.7 13.3 96 0.4 S 7 7 4 4 1021.4 1021.5 7.8
27/08:30pm 14.1 15.2 13.4 96 0.4 CALM 0 9 0 5 1021.2 - 7.8
27/08:21pm 14.1 15.2 13.4 96 0.4 CALM 0 0 0 0 1021.2 - 7.8
27/08:00pm 14.2 15.4 13.7 97 0.3 CALM 0 0 0 0 1021.3 - 7.8
27/07:45pm 14.2 15.4 13.7 97 0.3 CALM 0 0 0 0 1020.7 - 7.8
27/07:30pm 14.2 15.4 13.7 97 0.3 CALM 0 0 0 0 1020.6 - 7.8
27/07:00pm 14.2 15.3 13.5 96 0.4 CALM 0 0 0 0 1020.5 - 7.8
27/06:30pm 14.4 14.4 13.7 96 0.4 SE 6 7 3 4 1020.4 - 7.8
27/06:00pm 14.6 15.8 13.7 94 0.5 CALM 0 0 0 0 1020.4 1020.5 7.8
27/05:30pm 14.7 15.9 13.8 94 0.5 CALM 0 4 0 2 1020.2 - 7.8
27/05:00pm 14.8 15.9 13.5 92 0.7 CALM 0 0 0 0 1020.1 - 7.4
27/04:30pm 14.7 14.5 13.6 93 0.6 E 7 9 4 5 1019.8 - 7.4
27/04:00pm 14.7 14.5 13.6 93 0.6 NE 7 9 4 5 1020.0 - 7.2
27/03:30pm 14.6 14.3 13.3 92 0.7 N 7 11 4 6 1019.9 - 7.0
27/03:00pm 14.4 14.0 13.1 92 0.7 N 7 9 4 5 1020.0 1020.1 6.8
27/02:54pm 14.5 13.9 13.4 93 0.6 N 9 11 5 6 1020.1 - 6.6
27/02:30pm 14.7 13.7 13.3 91 0.8 NNW 11 15 6 8 1020.5 - 5.2
27/02:18pm 14.8 14.5 12.8 88 1.1 N 6 9 3 5 1020.0 - 5.0
27/02:00pm 14.8 14.7 13.2 90 0.9 N 6 9 3 5 1020.0 - 4.6
27/01:30pm 15.7 12.4 11.0 73 2.5 W 19 24 10 13 1021.0 - 1.2
27/01:13pm 18.7 16.7 6.9 46 5.9 WNW 7 7 4 4 1019.7 - 0.8
27/01:00pm 19.8 18.9 9.2 50 5.6 S 4 7 2 4 1019.7 - 0.2
27/12:30pm 21.3 19.0 5.9 36 7.7 S 7 11 4 6 1019.6 - 0.0
27/12:00pm 21.0 18.1 6.5 39 7.3 SW 11 17 6 9 1020.4 1020.5 0.0
27/11:30am 21.0 18.2 6.8 39 7.2 W 11 15 6 8 1020.7 - 0.0
27/11:00am 19.3 17.6 7.5 46 6.0 NW 6 11 3 6 1020.9 - 0.0
27/10:30am 18.6 17.7 9.2 54 4.9 S 4 7 2 4 1021.2 - 0.0
27/10:00am 18.2 17.3 9.2 55 4.7 S 4 7 2 4 1021.4 - 0.0
27/09:30am 17.0 16.5 9.5 61 3.9 S 2 7 1 4 1021.9 - 0.0
27/09:00am 16.6 16.4 9.0 61 3.9 CALM 0 0 0 0 1022.0 1022.1 0.0
27/08:30am 15.3 15.1 9.0 66 3.2 CALM 0 - 0 - 1022.1 - 0.0
27/08:00am 14.8 14.7 9.3 69 2.8 CALM 0 0 0 0 1021.7 - 0.0
27/07:30am 13.9 13.5 9.6 75 2.2 SSW 2 7 1 4 1021.5 - 0.0
27/07:00am 13.1 12.3 9.6 79 1.8 SSW 4 7 2 4 1021.1 - 0.0
27/06:30am 12.8 11.4 9.0 78 1.9 SSW 6 9 3 5 1021.0 - 0.0
27/06:00am 12.7 12.1 8.9 78 1.9 E 2 7 1 4 1020.8 1020.9 0.0
27/05:30am 13.0 12.3 8.6 74 2.2 SW 2 9 1 5 1020.3 - 0.0
27/05:00am 13.2 12.8 8.4 72 2.4 CALM 0 0 0 0 1019.9 - 0.0
27/04:30am 13.7 11.4 8.9 73 2.4 SSW 11 13 6 7 1019.7 - 0.0
27/04:00am 14.9 14.2 7.1 59 3.8 CALM 0 0 0 0 1020.2 - 0.0
27/03:30am 13.6 13.4 9.0 74 2.3 CALM 0 0 0 0 1020.0 - 0.0
27/03:00am 13.7 13.4 8.5 71 2.6 CALM 0 0 0 0 1020.0 1020.1 0.0
27/02:30am 13.8 12.2 8.2 69 2.8 NW 6 7 3 4 1020.1 - 0.0
27/02:00am 13.0 12.0 8.8 75 2.1 E 4 7 2 4 1020.2 - 0.0
27/01:30am 13.9 13.2 8.5 70 2.7 SSW 2 7 1 4 1020.2 - 0.0
27/01:00am 12.7 12.3 8.2 74 2.2 CALM 0 0 0 0 1020.6 - 0.0
27/12:30am 12.0 10.2 7.2 72 2.3 S 6 7 3 4 1020.5 - 0.0
27/12:00am 13.0 12.4 7.4 69 2.7 CALM 0 0 0 0 1020.7 1020.8 0.0
 
Date/Time
EST
Temp
°C
App
Temp
°C
Dew
Point
Rel
Hum
%
Delta-T
°C
Wind Press
QNH
hPa
Press
MSL
hPa
Rain
since 9 am
mm
Dir
 
Spd
km/h
Gust
km/h
Spd
kts
Gust
kts
26/11:30pm 13.7 11.8 6.9 63 3.3 ENE 6 7 3 4 1020.9 - 0.0
26/11:00pm 16.8 14.5 5.8 48 5.3 ESE 7 11 4 6 1020.7 - 0.0
26/10:30pm 17.2 16.0 6.4 49 5.3 SW 2 9 1 5 1020.9 - 0.0
26/10:00pm 17.5 14.5 6.0 46 5.6 NW 11 15 6 8 1020.7 - 0.0
26/09:30pm 16.3 13.7 6.2 51 4.9 ENE 9 11 5 6 1020.8 - 0.0
26/09:00pm 20.2 15.9 5.3 37 7.3 W 17 20 9 11 1020.6 1020.7 0.0
26/08:30pm 21.5 17.0 4.4 32 8.3 W 17 22 9 12 1020.4 - 0.0
26/08:00pm 21.5 17.5 5.0 34 8.1 W 15 19 8 10 1020.2 - 0.0
26/07:30pm 21.7 17.4 5.4 34 8.1 W 17 22 9 12 1019.9 - 0.0
26/07:00pm 22.2 18.3 5.3 33 8.4 W 15 19 8 10 1019.4 - 0.0
26/06:30pm 21.6 18.2 5.8 35 7.9 W 13 19 7 10 1019.0 - 0.0
26/06:00pm 22.6 19.3 6.2 34 8.3 W 13 19 7 10 1018.6 1018.6 0.0
26/05:30pm 24.6 20.4 5.8 29 9.6 WSW 17 20 9 11 1018.1 - 0.0
26/05:00pm 26.0 21.5 6.1 28 10.3 W 19 26 10 14 1017.6 - 0.0
26/04:30pm 27.0 22.7 7.2 28 10.5 WNW 19 28 10 15 1017.2 - 0.0
26/04:00pm 27.6 24.0 6.8 26 11.0 WNW 15 19 8 10 1017.2 - 0.0
26/03:30pm 27.7 23.4 7.0 27 11.0 W 19 28 10 15 1016.8 - 0.0
26/03:00pm 28.1 23.6 7.1 26 11.2 WNW 20 32 11 17 1017.0 1017.0 0.0
26/02:30pm 27.8 21.8 7.1 27 11.0 WNW 28 41 15 22 1017.3 - 0.0
26/02:00pm 27.6 21.5 6.8 26 11.0 WNW 28 37 15 20 1017.6 - 0.0
26/01:30pm 26.8 21.9 6.9 28 10.5 WNW 22 39 12 21 1017.8 - 0.0
26/01:00pm 26.9 22.2 5.2 25 11.1 NW 19 32 10 17 1018.4 - 0.0
26/12:30pm 26.4 20.6 4.6 24 11.0 WNW 24 35 13 19 1018.9 - 0.0
26/12:00pm 26.1 20.3 4.4 24 10.9 WNW 24 28 13 15 1019.4 1019.4 0.0
26/11:30am 25.3 21.7 5.1 27 10.2 NW 13 22 7 12 1020.0 - 0.0
26/11:00am 23.8 20.1 4.7 29 9.5 NW 13 19 7 10 1020.4 - 0.0
26/10:30am 22.6 20.0 5.9 34 8.4 W 9 15 5 8 1021.0 - 0.0
26/10:00am 21.5 19.2 5.9 36 7.8 NW 7 20 4 11 1021.3 - 0.0
26/09:30am 19.9 16.9 6.0 40 6.9 NNW 11 13 6 7 1021.4 - 0.0
26/09:00am 18.8 15.5 6.3 44 6.2 NW 13 17 7 9 1021.2 1021.3 0.0
26/08:30am 19.0 15.0 6.5 44 6.2 NNW 17 20 9 11 1021.4 - 0.0
26/08:00am 19.0 16.3 7.3 46 5.9 NW 11 13 6 7 1021.3 - 0.0
26/07:30am 18.0 15.5 8.2 52 5.0 NW 11 15 6 8 1020.9 - 0.0
26/07:00am 16.3 16.7 11.1 71 2.8 CALM 0 0 0 0 1020.6 - 0.0
26/06:30am 14.6 14.6 11.0 79 1.9 W 2 6 1 3 1020.3 - 0.0
26/06:00am 14.1 14.6 11.7 85 1.3 CALM 0 0 0 0 1019.9 1020.0 0.0
26/05:30am 14.5 15.0 11.7 83 1.5 CALM 0 0 0 0 1019.4 - 0.0

Other Formats:

Comma delimited format used in spreadsheet applications
http://www.bom.gov.au/fwo/IDQ60801/IDQ60801.94568.axf

JavaScript Object Notation format (JSON) in row-major order
http://www.bom.gov.au/fwo/IDQ60801/IDQ60801.94568.json